Time;durP1;ratioP1;P1;durP2;ratioP2;P2;SDS_P1;SDS_P2;PMS_P1;PMS_P2;Temp;Humidity;BMP_temperature;BMP_pressure;BME280_temperature;BME280_humidity;BME280_pressure;Samples;Min_cycle;Max_cycle;Signal;HPM_P1;HPM_P2
2023/01/20 00:01:30;;;;;;;0.20;0.20;;;1.40;99.90;;;;;;5011116;28;20187;-63
2023/01/20 00:03:56;;;;;;;0.10;0.10;;;1.40;99.90;;;;;;5011286;28;20253;-63
2023/01/20 00:06:24;;;;;;;0.00;0.00;;;1.40;99.90;;;;;;5011059;28;20665;-63
2023/01/20 00:08:54;;;;;;;0.00;0.00;;;1.40;99.90;;;;;;5008157;28;20195;-63
2023/01/20 00:11:20;;;;;;;0.20;0.20;;;1.40;99.90;;;;;;5011081;28;20187;-63
2023/01/20 00:13:46;;;;;;;0.10;0.10;;;1.40;99.90;;;;;;5010440;28;20218;-63
2023/01/20 00:16:12;;;;;;;0.00;0.00;;;1.40;99.90;;;;;;5011412;28;20193;-63
2023/01/20 00:18:39;;;;;;;0.10;0.10;;;1.30;99.90;;;;;;5014136;28;20634;-63
2023/01/20 00:21:10;;;;;;;0.00;0.00;;;1.30;99.90;;;;;;5014667;28;20190;-62
2023/01/20 00:23:36;;;;;;;0.00;0.00;;;1.30;99.90;;;;;;5012417;28;20201;-63
2023/01/20 00:26:12;;;;;;;0.10;0.10;;;1.30;99.90;;;;;;5015271;28;20182;-63
2023/01/20 00:28:38;;;;;;;0.00;0.00;;;1.30;99.90;;;;;;4997409;28;20301;-63
2023/01/20 00:31:10;;;;;;;0.20;0.20;;;1.30;99.90;;;;;;5015115;28;20183;-63
2023/01/20 00:33:36;;;;;;;0.00;0.00;;;1.30;99.90;;;;;;5014772;28;20226;-63
2023/01/20 00:36:02;;;;;;;0.13;0.13;;;1.30;99.90;;;;;;5015259;28;20183;-64
2023/01/20 00:38:27;;;;;;;0.00;0.00;;;1.30;99.90;;;;;;5014855;28;20179;-65
2023/01/20 00:40:54;;;;;;;0.00;0.00;;;1.30;99.90;;;;;;5010484;28;20313;-64
2023/01/20 00:43:19;;;;;;;0.28;0.28;;;1.40;99.90;;;;;;5022500;28;20213;-64
2023/01/20 00:45:45;;;;;;;0.00;0.00;;;1.30;99.90;;;;;;4998192;28;20281;-64
2023/01/20 00:48:10;;;;;;;0.17;0.17;;;1.40;99.90;;;;;;4995768;28;20181;-64
2023/01/20 00:50:36;;;;;;;0.00;0.00;;;1.40;99.90;;;;;;4995613;28;20175;-64
2023/01/20 00:53:01;;;;;;;0.00;0.00;;;1.30;99.90;;;;;;4995710;28;20310;-64
2023/01/20 00:55:27;;;;;;;0.10;0.10;;;1.30;99.90;;;;;;5009737;28;20245;-64
2023/01/20 00:57:52;;;;;;;0.00;0.00;;;1.20;99.90;;;;;;5014870;28;20183;-64
2023/01/20 01:00:18;;;;;;;0.70;0.70;;;1.10;99.90;;;;;;5014250;28;20237;-64
2023/01/20 01:02:43;;;;;;;0.00;0.00;;;1.20;99.90;;;;;;5014438;28;20237;-64
2023/01/20 01:05:09;;;;;;;0.00;0.00;;;1.20;99.90;;;;;;4997056;28;20241;-64
2023/01/20 01:07:34;;;;;;;0.03;0.03;;;1.20;99.90;;;;;;5008995;28;20612;-64
2023/01/20 01:10:00;;;;;;;0.00;0.00;;;1.20;99.90;;;;;;5013967;28;20269;-65
2023/01/20 01:12:25;;;;;;;0.03;0.03;;;1.20;99.90;;;;;;5014189;28;20764;-64
2023/01/20 01:14:51;;;;;;;0.00;0.00;;;1.20;99.90;;;;;;5009392;28;20550;-64
2023/01/20 01:17:17;;;;;;;0.00;0.00;;;1.20;99.90;;;;;;4999210;28;20213;-64
2023/01/20 01:19:42;;;;;;;0.22;0.17;;;1.20;99.90;;;;;;5011046;28;20213;-64
2023/01/20 01:22:08;;;;;;;0.00;0.00;;;1.30;99.90;;;;;;4983721;28;20194;-64
2023/01/20 01:24:33;;;;;;;0.00;0.00;;;1.30;99.90;;;;;;5014346;28;20186;-64
2023/01/20 01:26:59;;;;;;;0.00;0.00;;;1.20;99.90;;;;;;4984217;28;20631;-64
2023/01/20 01:29:24;;;;;;;0.10;0.10;;;1.20;99.90;;;;;;4994329;28;20175;-64
2023/01/20 01:31:50;;;;;;;0.10;0.10;;;1.20;99.90;;;;;;5014275;28;20182;-64
2023/01/20 01:34:15;;;;;;;0.00;0.00;;;1.10;99.90;;;;;;4996703;28;20215;-64
2023/01/20 01:36:41;;;;;;;0.10;0.10;;;1.10;99.90;;;;;;4996992;28;20776;-64
2023/01/20 01:39:06;;;;;;;0.00;0.00;;;1.10;99.90;;;;;;5014609;28;20630;-65
2023/01/20 01:41:32;;;;;;;0.00;0.00;;;1.00;99.90;;;;;;5014248;28;20210;-64
2023/01/20 01:44:10;;;;;;;0.00;0.00;;;1.00;99.90;;;;;;4986946;28;20225;-64
2023/01/20 01:46:36;;;;;;;0.10;0.10;;;0.90;99.90;;;;;;5014139;28;20194;-65
2023/01/20 01:49:11;;;;;;;0.10;0.10;;;0.90;99.90;;;;;;5014357;28;20251;-65
2023/01/20 01:51:52;;;;;;;0.00;0.00;;;0.90;99.90;;;;;;5014229;28;20653;-65
2023/01/20 01:54:25;;;;;;;0.08;0.08;;;0.90;99.90;;;;;;5013903;28;20241;-65
2023/01/20 01:56:52;;;;;;;0.00;0.00;;;0.80;99.90;;;;;;5014264;28;20253;-65
2023/01/20 01:59:18;;;;;;;0.00;0.00;;;0.80;99.90;;;;;;4996300;28;20190;-65
2023/01/20 02:01:48;;;;;;;0.30;0.30;;;0.80;99.90;;;;;;5014346;28;20572;-65
2023/01/20 02:04:17;;;;;;;0.00;0.00;;;0.80;99.90;;;;;;5014131;28;20202;-65
2023/01/20 02:06:54;;;;;;;0.00;0.00;;;0.90;99.90;;;;;;5013687;28;20194;-65
2023/01/20 02:09:20;;;;;;;0.10;0.10;;;0.80;99.90;;;;;;5013646;28;20571;-65
2023/01/20 02:11:50;;;;;;;0.00;0.00;;;0.90;99.90;;;;;;5013926;28;20186;-65
2023/01/20 02:14:19;;;;;;;0.10;0.10;;;0.90;99.90;;;;;;5013646;28;20272;-64
2023/01/20 02:17:20;;;;;;;0.32;0.32;;;1.00;99.90;;;;;;5013839;28;20622;-64
2023/01/20 02:20:00;;;;;;;0.00;0.00;;;1.00;99.90;;;;;;4992643;28;20178;-65
2023/01/20 02:22:53;;;;;;;0.00;0.00;;;1.00;99.90;;;;;;5005484;28;20214;-65
2023/01/20 02:25:28;;;;;;;0.00;0.00;;;1.00;99.90;;;;;;4995281;28;20610;-65
2023/01/20 02:28:22;;;;;;;0.03;0.03;;;1.00;99.90;;;;;;5010935;28;20407;-65
2023/01/20 02:31:25;;;;;;;0.00;0.00;;;1.00;99.90;;;;;;5004804;28;20190;-64
2023/01/20 02:34:01;;;;;;;0.03;0.03;;;1.00;99.90;;;;;;4976548;28;20637;-64
2023/01/20 02:36:38;;;;;;;0.00;0.00;;;0.90;99.90;;;;;;5012800;28;20236;-65
2023/01/20 02:39:14;;;;;;;0.50;0.50;;;1.00;99.90;;;;;;5013422;28;20190;-64
2023/01/20 02:41:48;;;;;;;0.20;0.20;;;1.00;99.90;;;;;;5011940;28;20182;-64
2023/01/20 02:44:24;;;;;;;0.00;0.00;;;1.00;99.90;;;;;;5013229;28;20623;-64
2023/01/20 02:47:02;;;;;;;0.00;0.00;;;1.00;99.90;;;;;;5013037;28;20182;-64
2023/01/20 02:49:35;;;;;;;0.00;0.00;;;1.00;99.90;;;;;;5013194;28;20182;-64
2023/01/20 02:52:13;;;;;;;0.10;0.08;;;1.10;99.90;;;;;;4995630;28;20183;-65
2023/01/20 02:54:43;;;;;;;0.10;0.10;;;1.10;99.90;;;;;;5012756;28;20252;-64
2023/01/20 02:57:12;;;;;;;0.00;0.00;;;1.10;99.90;;;;;;5013101;28;20209;-65
2023/01/20 02:59:43;;;;;;;0.10;0.10;;;1.10;99.90;;;;;;5012811;28;20232;-64
2023/01/20 03:02:19;;;;;;;0.00;0.00;;;1.10;99.90;;;;;;5011407;28;20209;-64
2023/01/20 03:04:54;;;;;;;0.00;0.00;;;1.10;99.90;;;;;;5013055;28;20232;-64
2023/01/20 03:07:22;;;;;;;0.20;0.20;;;1.10;99.90;;;;;;5012412;28;20190;-64
2023/01/20 03:09:52;;;;;;;0.13;0.13;;;1.10;99.90;;;;;;4995200;28;20198;-64
2023/01/20 03:12:28;;;;;;;0.68;0.68;;;1.00;99.90;;;;;;5008105;28;20179;-65
2023/01/20 03:14:53;;;;;;;0.10;0.10;;;1.00;99.90;;;;;;5000849;28;20257;-65
2023/01/20 03:17:20;;;;;;;0.00;0.00;;;1.00;99.90;;;;;;5012264;28;20315;-65
2023/01/20 03:19:46;;;;;;;0.00;0.00;;;1.00;99.90;;;;;;5002311;28;20187;-65
2023/01/20 03:22:11;;;;;;;0.00;0.00;;;1.00;99.90;;;;;;5012418;28;20630;-64
2023/01/20 03:24:39;;;;;;;0.17;0.15;;;1.00;99.90;;;;;;5012167;28;20521;-65
2023/01/20 03:27:06;;;;;;;0.10;0.10;;;0.90;99.90;;;;;;5012220;28;20187;-65
2023/01/20 03:29:32;;;;;;;0.00;0.00;;;1.00;99.90;;;;;;5012133;28;20270;-64
2023/01/20 03:31:59;;;;;;;0.38;0.38;;;1.00;99.90;;;;;;4995088;28;20270;-64
2023/01/20 03:34:29;;;;;;;0.10;0.10;;;0.90;99.90;;;;;;4992256;28;20269;-65
2023/01/20 03:36:56;;;;;;;0.00;0.00;;;1.00;99.90;;;;;;5001265;28;20179;-65
2023/01/20 03:40:03;;;;;;;0.30;0.30;;;0.90;99.90;;;;;;5007674;28;20190;-65
2023/01/20 03:42:33;;;;;;;0.00;0.00;;;1.00;99.90;;;;;;5011391;28;20183;-65
2023/01/20 03:45:06;;;;;;;0.03;0.03;;;0.90;99.90;;;;;;5011794;28;20182;-64
2023/01/20 03:48:06;;;;;;;0.10;0.10;;;1.00;99.90;;;;;;5011894;28;20261;-64
2023/01/20 03:50:36;;;;;;;0.00;0.00;;;1.00;99.90;;;;;;5004473;28;20198;-64
2023/01/20 03:53:11;;;;;;;0.10;0.10;;;1.00;99.90;;;;;;5011730;28;20249;-64
2023/01/20 03:55:48;;;;;;;0.10;0.10;;;1.00;99.90;;;;;;4994126;28;20656;-64
2023/01/20 03:58:33;;;;;;;0.00;0.00;;;1.00;99.90;;;;;;4962770;28;20207;-65
2023/01/20 04:01:02;;;;;;;0.23;0.23;;;1.00;99.90;;;;;;4992372;28;20210;-64
2023/01/20 04:03:31;;;;;;;0.17;0.17;;;1.00;99.90;;;;;;4992281;28;20686;-64
2023/01/20 04:06:01;;;;;;;0.00;0.00;;;1.00;99.90;;;;;;4992353;28;20184;-64
2023/01/20 04:08:32;;;;;;;0.00;0.00;;;1.00;99.90;;;;;;5011803;28;20202;-64
2023/01/20 04:11:00;;;;;;;0.00;0.00;;;0.90;99.90;;;;;;5011768;28;20183;-64
2023/01/20 04:13:25;;;;;;;0.00;0.00;;;0.90;99.90;;;;;;5011413;28;20226;-65
2023/01/20 04:15:51;;;;;;;0.38;0.38;;;0.90;99.90;;;;;;5008340;28;20179;-64
2023/01/20 04:18:20;;;;;;;0.00;0.00;;;0.90;99.90;;;;;;5010890;28;20296;-65
2023/01/20 04:21:00;;;;;;;0.00;0.00;;;0.90;99.90;;;;;;5010598;28;20634;-62
2023/01/20 04:23:34;;;;;;;0.00;0.00;;;0.90;99.90;;;;;;5012072;28;20182;-63
2023/01/20 04:25:59;;;;;;;0.00;0.00;;;0.90;99.90;;;;;;5011273;28;20190;-63
2023/01/20 04:28:25;;;;;;;0.00;0.00;;;0.90;99.90;;;;;;4986257;28;20191;-62
2023/01/20 04:30:51;;;;;;;0.00;0.00;;;0.90;99.90;;;;;;5008159;28;20630;-63
2023/01/20 04:33:17;;;;;;;0.00;0.00;;;1.00;99.90;;;;;;5010892;28;20276;-63
2023/01/20 04:35:42;;;;;;;0.13;0.13;;;1.00;99.90;;;;;;5011705;28;20180;-64
2023/01/20 04:38:08;;;;;;;0.43;0.43;;;1.00;99.90;;;;;;4993516;28;20522;-64
2023/01/20 04:40:34;;;;;;;0.00;0.00;;;0.90;99.90;;;;;;5011537;28;20187;-63
2023/01/20 04:42:59;;;;;;;0.55;0.55;;;0.90;99.90;;;;;;5010524;28;20630;-64
2023/01/20 04:45:25;;;;;;;0.10;0.10;;;0.90;99.90;;;;;;5010385;28;20569;-65
2023/01/20 04:47:50;;;;;;;0.05;0.05;;;0.90;99.90;;;;;;4998524;28;20523;-64
2023/01/20 04:50:16;;;;;;;0.00;0.00;;;0.90;99.90;;;;;;4974568;28;20293;-64
2023/01/20 04:52:42;;;;;;;0.00;0.00;;;0.90;99.90;;;;;;5011233;28;20285;-62
2023/01/20 04:55:09;;;;;;;0.00;0.00;;;0.80;99.90;;;;;;5011032;28;20319;-65
2023/01/20 04:57:34;;;;;;;0.00;0.00;;;0.80;99.90;;;;;;4993676;28;20659;-61
2023/01/20 05:00:00;;;;;;;0.20;0.20;;;0.80;99.90;;;;;;5009969;28;20303;-61
2023/01/20 05:02:26;;;;;;;0.00;0.00;;;0.80;99.90;;;;;;5011204;28;20213;-64
2023/01/20 05:04:51;;;;;;;0.20;0.20;;;0.80;99.90;;;;;;5012100;28;20179;-65
2023/01/20 05:07:17;;;;;;;0.17;0.17;;;0.70;99.90;;;;;;5010316;28;20187;-68
2023/01/20 05:09:42;;;;;;;0.00;0.00;;;0.70;99.90;;;;;;4998972;28;20304;-66
2023/01/20 05:12:08;;;;;;;0.00;0.00;;;0.70;99.90;;;;;;5014221;28;20237;-67
2023/01/20 05:14:34;;;;;;;0.00;0.00;;;0.70;99.90;;;;;;5013896;28;20191;-67
2023/01/20 05:16:59;;;;;;;0.00;0.00;;;0.70;99.90;;;;;;4996293;28;20877;-67
2023/01/20 05:19:25;;;;;;;0.10;0.10;;;0.60;99.90;;;;;;5014424;28;20183;-67
2023/01/20 05:21:50;;;;;;;0.00;0.00;;;0.60;99.90;;;;;;5014826;28;20661;-67
2023/01/20 05:24:16;;;;;;;0.00;0.00;;;0.60;99.90;;;;;;5014604;28;20175;-67
2023/01/20 05:26:41;;;;;;;0.00;0.00;;;0.50;99.90;;;;;;5014690;28;20232;-66
2023/01/20 05:29:08;;;;;;;1.15;0.70;;;0.50;99.90;;;;;;5014800;28;20179;-67
2023/01/20 05:31:33;;;;;;;0.00;0.00;;;0.50;99.90;;;;;;5014606;28;20175;-66
2023/01/20 05:33:59;;;;;;;0.23;0.23;;;0.50;99.90;;;;;;5014383;28;20220;-66
2023/01/20 05:36:27;;;;;;;0.10;0.10;;;0.50;99.90;;;;;;5014353;28;20175;-67
2023/01/20 05:38:53;;;;;;;0.10;0.10;;;0.50;99.90;;;;;;5014451;28;20267;-67
2023/01/20 05:41:18;;;;;;;0.00;0.00;;;0.40;99.90;;;;;;5014282;28;20209;-67
2023/01/20 05:43:44;;;;;;;0.00;0.00;;;0.40;99.90;;;;;;4996766;28;20290;-66
2023/01/20 05:46:10;;;;;;;0.00;0.00;;;0.40;99.90;;;;;;5014250;28;20199;-67
2023/01/20 05:48:35;;;;;;;0.00;0.00;;;0.40;99.90;;;;;;4996609;28;20179;-66
2023/01/20 05:51:01;;;;;;;0.28;0.28;;;0.30;99.90;;;;;;5014316;28;20167;-66
2023/01/20 05:53:27;;;;;;;0.00;0.00;;;0.30;99.90;;;;;;5013425;28;20214;-67
2023/01/20 05:56:00;;;;;;;0.20;0.20;;;0.30;99.90;;;;;;5014183;28;20179;-67
2023/01/20 05:58:26;;;;;;;0.00;0.00;;;0.20;99.90;;;;;;5014043;28;20179;-67
2023/01/20 06:00:51;;;;;;;0.00;0.00;;;0.20;99.90;;;;;;5014149;28;20178;-66
2023/01/20 06:03:17;;;;;;;0.00;0.00;;;0.20;99.90;;;;;;5014054;28;20174;-67
2023/01/20 06:05:42;;;;;;;0.00;0.00;;;0.20;99.90;;;;;;5014025;28;20183;-67
2023/01/20 06:08:08;;;;;;;0.10;0.10;;;0.20;99.90;;;;;;4995732;28;20716;-67
2023/01/20 06:10:33;;;;;;;0.00;0.00;;;0.20;99.90;;;;;;4994333;28;20179;-67
2023/01/20 06:12:59;;;;;;;0.00;0.00;;;0.10;99.90;;;;;;4992825;28;20294;-66
2023/01/20 06:15:24;;;;;;;0.00;0.00;;;0.10;99.90;;;;;;4994154;28;20187;-67
2023/01/20 06:17:50;;;;;;;0.10;0.10;;;0.10;99.90;;;;;;4994609;28;20175;-67
2023/01/20 06:20:16;;;;;;;0.00;0.00;;;0.10;99.90;;;;;;5008688;28;20233;-67
2023/01/20 06:22:42;;;;;;;0.23;0.23;;;0.00;99.90;;;;;;5013611;28;20183;-67
2023/01/20 06:25:08;;;;;;;0.00;0.00;;;0.00;99.90;;;;;;5013667;28;20164;-67
2023/01/20 06:27:33;;;;;;;0.00;0.00;;;0.00;99.90;;;;;;5013578;28;20187;-66
2023/01/20 06:29:59;;;;;;;0.00;0.00;;;-0.10;99.90;;;;;;4996128;28;20175;-66
2023/01/20 06:32:24;;;;;;;0.00;0.00;;;-0.10;99.90;;;;;;5013595;28;20183;-66
2023/01/20 06:34:51;;;;;;;0.00;0.00;;;-0.10;99.90;;;;;;5013750;28;20548;-67
2023/01/20 06:37:18;;;;;;;0.00;0.00;;;-0.10;99.90;;;;;;5013487;28;20171;-67
2023/01/20 06:39:43;;;;;;;0.00;0.00;;;-0.20;99.90;;;;;;5013446;28;20265;-67
2023/01/20 06:42:09;;;;;;;0.40;0.40;;;-0.20;99.90;;;;;;5013320;28;20270;-67
2023/01/20 06:44:34;;;;;;;0.10;0.10;;;-0.30;99.90;;;;;;5013361;28;20241;-67
2023/01/20 06:47:00;;;;;;;0.00;0.00;;;-0.30;99.90;;;;;;5013351;28;20171;-67
2023/01/20 06:49:25;;;;;;;0.00;0.00;;;-0.20;99.90;;;;;;5013320;28;20249;-67
2023/01/20 06:51:51;;;;;;;0.00;0.00;;;-0.30;99.90;;;;;;5013356;28;20186;-67
2023/01/20 06:54:16;;;;;;;0.10;0.10;;;-0.30;99.90;;;;;;5013067;28;20281;-67
2023/01/20 06:56:42;;;;;;;0.00;0.00;;;-0.40;99.90;;;;;;5013298;28;20171;-67
2023/01/20 06:59:09;;;;;;;0.10;0.10;;;-0.40;99.90;;;;;;5013113;28;20198;-67
2023/01/20 07:01:35;;;;;;;0.00;0.00;;;-0.40;99.90;;;;;;5013231;28;20639;-67
2023/01/20 07:04:01;;;;;;;0.00;0.00;;;-0.40;99.90;;;;;;5013123;28;20225;-67
2023/01/20 07:06:32;;;;;;;0.00;0.00;;;-0.40;99.90;;;;;;5008566;28;20279;-67
2023/01/20 07:08:58;;;;;;;0.10;0.10;;;-0.50;99.90;;;;;;4993191;28;20540;-66
2023/01/20 07:11:24;;;;;;;0.00;0.00;;;-0.50;99.90;;;;;;4993314;28;20242;-67
2023/01/20 07:13:49;;;;;;;0.00;0.00;;;-0.60;99.90;;;;;;4993280;28;20211;-67
2023/01/20 07:16:15;;;;;;;0.03;0.03;;;-0.50;99.90;;;;;;4993216;28;20183;-67
2023/01/20 07:18:41;;;;;;;0.30;0.30;;;-0.60;99.90;;;;;;4995007;28;20319;-67
2023/01/20 07:21:10;;;;;;;0.10;0.10;;;-0.60;99.90;;;;;;5012672;28;20189;-67
2023/01/20 07:23:36;;;;;;;0.03;0.03;;;-0.60;99.90;;;;;;5012660;28;20192;-67
2023/01/20 07:26:09;;;;;;;0.00;0.00;;;-0.60;99.90;;;;;;5012609;28;20175;-67
2023/01/20 07:28:35;;;;;;;0.00;0.00;;;-0.60;99.90;;;;;;5012165;28;20240;-67
2023/01/20 07:31:09;;;;;;;0.00;0.00;;;-0.70;99.90;;;;;;5012603;28;20265;-67
2023/01/20 07:33:35;;;;;;;0.00;0.00;;;-0.70;99.90;;;;;;5012542;28;20226;-67
2023/01/20 07:36:01;;;;;;;0.00;0.00;;;-0.70;99.90;;;;;;5012574;28;20548;-66
2023/01/20 07:38:28;;;;;;;0.10;0.10;;;-0.70;99.90;;;;;;5012461;28;20179;-67
2023/01/20 07:40:57;;;;;;;0.17;0.17;;;-0.70;99.90;;;;;;5012558;28;20724;-67
2023/01/20 07:43:23;;;;;;;0.10;0.10;;;-0.70;99.90;;;;;;5012347;28;20174;-67
2023/01/20 07:45:49;;;;;;;0.00;0.00;;;-0.70;99.90;;;;;;5012662;28;20309;-67
2023/01/20 07:48:14;;;;;;;0.00;0.00;;;-0.70;99.90;;;;;;5012300;28;20203;-67
2023/01/20 07:50:40;;;;;;;0.00;0.00;;;-0.70;99.90;;;;;;5012381;28;20175;-67
2023/01/20 07:53:05;;;;;;;0.00;0.00;;;-0.70;99.90;;;;;;5012211;28;20222;-67
2023/01/20 07:55:32;;;;;;;0.20;0.20;;;-0.70;99.90;;;;;;5012071;28;20227;-67
2023/01/20 07:57:58;;;;;;;0.00;0.00;;;-0.70;99.90;;;;;;5012222;28;20535;-67
2023/01/20 08:00:23;;;;;;;0.03;0.03;;;-0.70;99.90;;;;;;5012221;28;20174;-67
2023/01/20 08:02:49;;;;;;;0.10;0.10;;;-0.70;99.90;;;;;;5012154;28;20187;-67
2023/01/20 08:05:15;;;;;;;0.00;0.00;;;-0.70;99.90;;;;;;5012119;28;20179;-67
2023/01/20 08:07:40;;;;;;;0.00;0.00;;;-0.70;99.90;;;;;;5005514;28;20186;-67
2023/01/20 08:10:06;;;;;;;0.00;0.00;;;-0.70;99.90;;;;;;5012065;28;20178;-68
2023/01/20 08:12:32;;;;;;;0.10;0.10;;;-0.70;99.90;;;;;;5012159;28;20210;-67
2023/01/20 08:14:57;;;;;;;0.00;0.00;;;-0.60;99.90;;;;;;5011984;28;20233;-67
2023/01/20 08:17:23;;;;;;;0.20;0.20;;;-0.60;99.90;;;;;;5012250;28;20217;-67
2023/01/20 08:19:48;;;;;;;0.17;0.17;;;-0.60;99.90;;;;;;5011911;28;20175;-67
2023/01/20 08:22:14;;;;;;;0.00;0.00;;;-0.50;99.90;;;;;;5011829;28;20171;-67
2023/01/20 08:24:40;;;;;;;0.40;0.40;;;-0.50;99.90;;;;;;5011834;28;20179;-67
2023/01/20 08:27:05;;;;;;;0.10;0.10;;;-0.40;99.90;;;;;;5011827;28;20182;-67
2023/01/20 08:29:32;;;;;;;0.00;0.00;;;-0.30;99.90;;;;;;5011961;28;20183;-67
2023/01/20 08:31:59;;;;;;;0.10;0.10;;;-0.30;99.90;;;;;;5011740;28;20257;-67
2023/01/20 08:34:25;;;;;;;0.00;0.00;;;-0.20;99.90;;;;;;5011801;28;20237;-67
2023/01/20 08:36:52;;;;;;;0.00;0.00;;;-0.10;99.90;;;;;;5012007;28;20186;-67
2023/01/20 08:39:19;;;;;;;0.07;0.07;;;-0.10;99.90;;;;;;5012603;28;20175;-67
2023/01/20 08:41:46;;;;;;;0.00;0.00;;;-0.10;99.90;;;;;;5015809;28;20170;-68
2023/01/20 08:44:13;;;;;;;0.00;0.00;;;0.00;99.90;;;;;;5015538;28;20183;-67
2023/01/20 08:46:39;;;;;;;0.10;0.10;;;0.10;99.90;;;;;;5015626;28;20170;-67
2023/01/20 08:49:07;;;;;;;0.53;0.43;;;0.20;99.90;;;;;;5015606;28;20544;-67
2023/01/20 08:51:33;;;;;;;0.07;0.07;;;0.30;99.90;;;;;;5015558;28;20181;-67
2023/01/20 08:53:59;;;;;;;0.10;0.10;;;0.40;99.90;;;;;;5015221;28;20304;-67
2023/01/20 08:56:26;;;;;;;0.10;0.10;;;0.40;99.90;;;;;;5015490;28;20171;-67
2023/01/20 08:58:52;;;;;;;0.07;0.07;;;0.50;99.90;;;;;;5015482;28;20183;-67
2023/01/20 09:01:24;;;;;;;0.15;0.15;;;0.60;99.90;;;;;;5015296;28;20171;-67
2023/01/20 09:03:51;;;;;;;0.00;0.00;;;0.70;99.90;;;;;;5015404;28;20198;-67
2023/01/20 09:06:17;;;;;;;0.00;0.00;;;0.80;99.90;;;;;;5012099;28;20238;-67
2023/01/20 09:08:43;;;;;;;0.00;0.00;;;0.90;99.90;;;;;;4995620;28;20214;-67
2023/01/20 09:11:11;;;;;;;0.00;0.00;;;1.00;99.90;;;;;;4995647;28;20163;-67
2023/01/20 09:13:37;;;;;;;0.10;0.10;;;1.10;99.90;;;;;;4995474;28;20228;-67
2023/01/20 09:16:03;;;;;;;0.00;0.00;;;1.20;99.90;;;;;;4995616;28;20199;-67
2023/01/20 09:18:30;;;;;;;0.30;0.30;;;1.30;99.90;;;;;;4995478;28;20191;-67
2023/01/20 09:20:57;;;;;;;0.10;0.10;;;1.40;99.90;;;;;;5014984;28;20183;-67
2023/01/20 09:23:23;;;;;;;0.03;0.03;;;1.40;99.90;;;;;;5015016;28;20258;-67
2023/01/20 09:25:49;;;;;;;0.07;0.07;;;1.40;99.90;;;;;;5014981;28;20266;-67
2023/01/20 09:28:14;;;;;;;0.10;0.10;;;1.50;99.90;;;;;;5014908;28;20190;-67
2023/01/20 09:30:41;;;;;;;0.00;0.00;;;1.50;99.90;;;;;;5014850;28;20233;-67
2023/01/20 09:33:08;;;;;;;0.00;0.00;;;1.60;99.90;;;;;;5014757;28;20234;-67
2023/01/20 09:35:34;;;;;;;0.00;0.00;;;1.60;99.90;;;;;;5014777;28;20182;-67
2023/01/20 09:44:22;;;;;;;0.00;0.00;;;1.80;99.90;;;;;;5014369;28;20194;-67
2023/01/20 09:47:27;;;;;;;0.00;0.00;;;1.80;99.90;;;;;;5014609;28;20649;-67
2023/01/20 09:53:04;;;;;;;0.10;0.10;;;2.00;99.90;;;;;;5014375;28;20215;-67
2023/01/20 09:55:48;;;;;;;0.00;0.00;;;2.20;99.90;;;;;;5014222;28;20314;-67
2023/01/20 09:58:35;;;;;;;0.00;0.00;;;2.30;99.90;;;;;;5014451;28;20274;-67
2023/01/20 10:01:20;;;;;;;0.00;0.00;;;2.40;99.90;;;;;;5014311;28;20174;-67
2023/01/20 10:04:12;;;;;;;0.00;0.00;;;2.40;99.90;;;;;;5014310;28;20175;-67
2023/01/20 10:07:23;;;;;;;0.00;0.00;;;2.60;99.90;;;;;;5008080;28;20550;-67
2023/01/20 10:09:52;;;;;;;0.00;0.00;;;2.70;99.90;;;;;;4987325;28;20196;-67
2023/01/20 10:12:35;;;;;;;0.00;0.00;;;2.70;99.90;;;;;;4994263;28;20183;-67
2023/01/20 10:15:08;;;;;;;0.00;0.00;;;2.70;99.90;;;;;;4994425;28;20171;-67
2023/01/20 10:17:42;;;;;;;0.00;0.00;;;2.70;99.90;;;;;;4994461;28;20230;-67
2023/01/20 10:20:21;;;;;;;0.30;0.30;;;2.70;99.90;;;;;;5007761;28;20174;-67
2023/01/20 10:22:49;;;;;;;0.08;0.08;;;2.90;99.90;;;;;;5013911;28;20175;-67
2023/01/20 10:25:19;;;;;;;0.00;0.00;;;3.00;99.90;;;;;;5013557;28;20183;-67
2023/01/20 10:27:56;;;;;;;0.00;0.00;;;3.20;99.90;;;;;;5013961;28;20523;-67
2023/01/20 10:30:28;;;;;;;0.00;0.00;;;3.40;99.90;;;;;;5013639;28;20189;-68
2023/01/20 10:33:12;;;;;;;0.00;0.00;;;3.50;99.90;;;;;;5013711;28;20257;-68
2023/01/20 10:35:48;;;;;;;0.00;0.00;;;3.60;99.90;;;;;;5014179;28;20182;-67
2023/01/20 10:38:29;;;;;;;0.17;0.17;;;3.60;99.90;;;;;;5013569;28;20668;-67
2023/01/20 10:41:02;;;;;;;0.15;0.15;;;3.60;99.90;;;;;;5013610;28;20179;-67
2023/01/20 10:43:27;;;;;;;0.00;0.00;;;3.60;99.90;;;;;;5013471;28;20701;-67
2023/01/20 10:46:13;;;;;;;0.00;0.00;;;3.60;99.90;;;;;;5013589;28;20274;-67
2023/01/20 10:48:51;;;;;;;0.00;0.00;;;3.60;99.90;;;;;;5013414;28;20178;-67
2023/01/20 10:51:37;;;;;;;0.00;0.00;;;3.60;99.90;;;;;;5013340;28;20283;-67
2023/01/20 10:54:21;;;;;;;0.00;0.00;;;3.40;99.90;;;;;;5013233;28;20273;-67
2023/01/20 10:56:52;;;;;;;0.15;0.15;;;3.30;99.90;;;;;;5013471;28;20630;-66
2023/01/20 10:59:27;;;;;;;0.00;0.00;;;3.30;99.90;;;;;;5013188;28;20244;-67
2023/01/20 11:01:58;;;;;;;0.00;0.00;;;3.20;99.90;;;;;;5012567;28;20177;-66
2023/01/20 11:04:24;;;;;;;0.00;0.00;;;3.30;99.90;;;;;;5013179;28;20179;-67
2023/01/20 11:06:55;;;;;;;0.15;0.15;;;3.30;99.90;;;;;;5008284;28;20527;-67
2023/01/20 11:09:41;;;;;;;0.00;0.00;;;3.40;99.90;;;;;;5013045;28;20183;-67
2023/01/20 11:12:20;;;;;;;0.00;0.00;;;3.50;99.90;;;;;;5012624;28;20183;-67
2023/01/20 11:14:46;;;;;;;0.00;0.00;;;3.60;99.90;;;;;;5013021;28;20564;-67
2023/01/20 11:17:15;;;;;;;0.28;0.28;;;3.60;99.90;;;;;;5013012;28;20175;-67
2023/01/20 11:19:55;;;;;;;0.00;0.00;;;3.70;99.90;;;;;;5012645;28;20175;-67
2023/01/20 11:22:36;;;;;;;0.00;0.00;;;3.80;99.90;;;;;;5012761;28;20171;-67
2023/01/20 11:25:03;;;;;;;0.00;0.00;;;3.80;99.90;;;;;;5012736;28;20174;-67
2023/01/20 11:27:44;;;;;;;0.00;0.00;;;3.80;99.90;;;;;;5012780;28;20228;-66
2023/01/20 11:30:29;;;;;;;0.00;0.00;;;3.80;99.90;;;;;;5012833;28;20170;-67
2023/01/20 11:33:19;;;;;;;0.45;0.30;;;3.80;99.90;;;;;;5012699;28;20218;-67
2023/01/20 11:35:57;;;;;;;0.00;0.00;;;3.90;99.90;;;;;;5012769;28;20264;-67
2023/01/20 11:38:48;;;;;;;0.00;0.00;;;4.00;99.90;;;;;;5012638;28;20597;-67
2023/01/20 11:41:26;;;;;;;0.00;0.00;;;4.00;99.90;;;;;;5011762;28;20198;-67
2023/01/20 11:43:54;;;;;;;0.00;0.00;;;4.00;99.90;;;;;;5012473;28;20633;-67
2023/01/20 11:46:27;;;;;;;0.28;0.28;;;4.10;99.90;;;;;;5012439;28;20264;-67
2023/01/20 11:49:11;;;;;;;0.00;0.00;;;4.10;99.90;;;;;;5012676;28;20237;-67
2023/01/20 11:51:48;;;;;;;0.52;0.52;;;4.10;99.90;;;;;;5012792;28;20175;-67
2023/01/20 11:54:33;;;;;;;0.30;0.30;;;4.10;99.90;;;;;;5012092;28;20234;-68
2023/01/20 11:57:06;;;;;;;0.00;0.00;;;4.10;99.90;;;;;;5011853;28;20221;-67
2023/01/20 11:59:34;;;;;;;0.00;0.00;;;4.10;99.90;;;;;;5012340;28;20181;-67
2023/01/20 12:02:00;;;;;;;0.00;0.00;;;4.20;99.90;;;;;;5012199;28;20183;-67
2023/01/20 12:04:45;;;;;;;0.00;0.00;;;4.20;99.90;;;;;;5012136;28;20711;-67
2023/01/20 12:07:21;;;;;;;0.00;0.00;;;4.10;99.90;;;;;;5006591;28;20655;-67
2023/01/20 12:09:52;;;;;;;0.00;0.00;;;4.20;99.90;;;;;;4992902;28;20265;-67
2023/01/20 12:12:35;;;;;;;0.00;0.00;;;4.20;99.90;;;;;;4992332;28;20211;-67
2023/01/20 12:15:09;;;;;;;0.00;0.00;;;4.30;99.90;;;;;;4992341;28;20563;-67
2023/01/20 12:17:52;;;;;;;0.00;0.00;;;4.30;99.90;;;;;;4992637;28;20203;-67
2023/01/20 12:20:18;;;;;;;0.00;0.00;;;4.30;99.90;;;;;;5003342;28;20192;-67
2023/01/20 12:23:06;;;;;;;0.00;0.00;;;4.30;99.90;;;;;;5011971;28;20183;-67
2023/01/20 12:25:46;;;;;;;0.00;0.00;;;4.30;99.90;;;;;;4999730;28;20272;-66
2023/01/20 12:28:18;;;;;;;0.00;0.00;;;4.20;99.90;;;;;;5012202;28;20174;-67
2023/01/20 12:30:52;;;;;;;0.00;0.00;;;4.30;99.90;;;;;;5012064;28;20182;-66
2023/01/20 12:33:22;;;;;;;0.30;0.30;;;4.40;99.90;;;;;;5011644;28;20210;-67
2023/01/20 12:36:15;;;;;;;0.00;0.00;;;4.50;99.90;;;;;;5011983;28;20197;-67
2023/01/20 12:39:05;;;;;;;0.00;0.00;;;4.50;99.90;;;;;;5011844;28;20232;-67
2023/01/20 12:42:05;;;;;;;0.00;0.00;;;4.50;99.90;;;;;;5011835;28;20186;-67
2023/01/20 12:44:52;;;;;;;0.00;0.00;;;4.50;99.90;;;;;;4974817;28;20278;-67
2023/01/20 12:47:32;;;;;;;0.00;0.00;;;4.50;99.90;;;;;;4992139;28;20184;-67
2023/01/20 12:50:34;;;;;;;0.00;0.00;;;4.50;99.90;;;;;;4992186;28;20206;-67
2023/01/20 12:53:26;;;;;;;0.00;0.00;;;4.40;99.90;;;;;;4992125;28;20253;-67
2023/01/20 12:56:17;;;;;;;0.00;0.00;;;4.40;99.90;;;;;;4992694;28;20184;-66
2023/01/20 12:58:56;;;;;;;0.00;0.00;;;4.30;99.90;;;;;;4992298;28;20534;-67
2023/01/20 13:01:36;;;;;;;0.00;0.00;;;4.20;99.90;;;;;;4992134;28;20262;-67
2023/01/20 13:04:08;;;;;;;0.00;0.00;;;4.10;99.90;;;;;;4992048;28;20183;-67
2023/01/20 13:06:52;;;;;;;0.00;0.00;;;3.90;99.90;;;;;;4992657;28;20643;-67
2023/01/20 13:09:26;;;;;;;0.10;0.10;;;3.80;99.90;;;;;;4991889;28;20179;-67
2023/01/20 13:11:57;;;;;;;0.00;0.00;;;3.60;99.90;;;;;;4992294;28;20174;-68
2023/01/20 13:14:46;;;;;;;0.10;0.10;;;3.50;99.90;;;;;;4991945;28;20294;-68
2023/01/20 13:17:45;;;;;;;0.00;0.00;;;3.50;99.90;;;;;;4992323;28;20567;-67
2023/01/20 13:20:20;;;;;;;0.00;0.00;;;3.40;99.90;;;;;;4981503;28;20180;-67
2023/01/20 13:22:47;;;;;;;0.00;0.00;;;3.30;99.90;;;;;;4991959;28;20223;-67
2023/01/20 13:25:15;;;;;;;0.17;0.17;;;3.30;99.90;;;;;;4994057;28;20179;-67